d.16/8 - Nu er de lyse nætter slut. Synlige planeter lige efter solnedgang, ikke så højt over horisonten: Jupiter mod sydvest, Saturn lidt sydligere og Mars mod sydøst.


Vejr3>N more information Vejr3>N


Vejr3>V more information Vejr3>V


3 timers nedbørs radar more information rain snow radar


besøg nogle andre vejrsider:

Template dokumentation
og downloads

And another site


lokal metar reports

   
EKRK - Roskilde
opdateret: 18-10-2018 18:20
klart  
klart  
   vind: nnv 4.1 m/s
vind: nnv 4.1 m/s
temperatur: 10°C
wind chill: 8°C
dugpunkt: 6°C
fugtighed: 76%
barometer: 1023 hPa
skyer: Clear
sigt: 10 km
sky detaljer: klart m
EKRK 181620Z AUTO 33008KT 9999NDV NCD 10/06 Q1023
EKCH - Copenhagen
opdateret: 18-10-2018 18:20
klart  
klart  
   vind: nnv 5.1 m/s
vind: nnv 5.1 m/s
temperatur: 11°C
dugpunkt: 6°C
fugtighed: 72%
barometer: 1023 hPa
sigt: mere end 10 km
sky detaljer: klart m
EKCH 181620Z 33010KT 310V010 CAVOK 11/06 Q1023 NOSIG
EHBK - Maastricht
opdateret: 18-10-2018 17:55
få skyer  
få skyer  
   vind: nnø 4.1 m/s
vind: nnø 4.1 m/s
temperatur: 15°C
dugpunkt: 11°C
fugtighed: 77%
barometer: 1023 hPa
skyer: Few Clouds
sigt: mere end 10 km
sky detaljer: få skyer 1127.8 m
EHBK 181555Z AUTO 03008KT 360V060 9999 FEW037 15/11 Q1023 NOSIG
ELLX - Luxemburg
opdateret: 18-10-2018 17:50
haze, mest skyet  
haze, mest skyet  
   vind: nnø 7.7 m/s
vind: nnø 7.7 m/s
temperatur: 15°C
dugpunkt: 11°C
fugtighed: 77%
barometer: 1021 hPa
skyer: Mostly Cloudy
sigt: 4 km
sky detaljer: mest skyet 670.6 m
ELLX 181550Z 03015KT 4000 HZ BKN022 15/11 Q1021 NOSIG
  

script udviklet af  Saratoga-weather.org tilpasset til dette template  Weerstation Leuven

du finder også vores vejrinformationer på:

European Weather Network

Weather Underground

AWEKAS

WeatherlinkIP

Citizen Weather Observer Program (CWOP)

udstyr som vi anvender:

vejrstation
Davis VP2+

vejrprogram
Weather Display

vejrserver
Dell E6400

hjemmeside host
Webhosting.dk

Davis VP2+

Weather Display

Dell E6400

Webhosting.dk